TimeBST,TemperatureF,Dew PointF,Humidity,Sea Level PressureIn,VisibilityMPH,Wind Direction,Wind SpeedMPH,Gust SpeedMPH,PrecipitationIn,Events,Conditions,WindDirDegrees,DateUTC
12:50 AM,60,50,60,29.81,16,SE,10.4,,,,Scattered Clouds,130,2013-10-01 23:50:00
12:50 AM,60.8,50.0,68,29.80,6.2,SE,10.4,-,N/A,,Overcast,130,2013-10-01 23:50:00
1:50 AM,60.8,50.0,68,29.80,6.2,ESE,11.5,-,N/A,,Mostly Cloudy,120,2013-10-02 00:50:00
2:50 AM,57.2,51.8,82,29.80,6.2,ESE,10.4,-,N/A,,Mostly Cloudy,120,2013-10-02 01:50:00
3:50 AM,58,52,74,29.80,13,ESE,10.4,,,,Mostly Cloudy,120,2013-10-02 02:50:00
3:50 AM,57.2,51.8,82,29.80,6.2,ESE,10.4,-,N/A,,Mostly Cloudy,120,2013-10-02 02:50:00
4:50 AM,57.2,51.8,82,29.80,6.2,SE,9.2,-,N/A,,Overcast,140,2013-10-02 03:50:00
5:50 AM,57.2,53.6,88,29.80,6.2,SE,8.1,-,N/A,,Overcast,130,2013-10-02 04:50:00
6:50 AM,57,54,85,29.81,5,ESE,9.2,,,Rain,Light Rain,120,2013-10-02 05:50:00
6:50 AM,57.2,53.6,88,29.80,5.0,ESE,9.2,-,N/A,,Haze,120,2013-10-02 05:50:00
7:50 AM,57.2,53.6,88,29.80,5.0,ESE,10.4,-,N/A,,Haze,120,2013-10-02 06:50:00
8:50 AM,57.2,55.4,94,29.83,3.7,SE,10.4,-,N/A,,Haze,130,2013-10-02 07:50:00
9:50 AM,59,55,84,29.85,4,ESE,8.1,,,,Haze,120,2013-10-02 08:50:00
9:50 AM,59.0,55.4,88,29.83,3.7,ESE,8.1,-,N/A,,Haze,120,2013-10-02 08:50:00
10:50 AM,60.8,55.4,82,29.83,5.6,SE,11.5,-,N/A,,Overcast,130,2013-10-02 09:50:00
11:50 AM,62.6,57.2,82,29.83,4.3,SE,8.1,-,N/A,,Haze,140,2013-10-02 10:50:00
12:50 PM,67,58,67,29.85,6,SE,8.1,,,,Haze,130,2013-10-02 11:50:00
12:50 PM,68.0,59.0,73,29.83,5.6,SE,8.1,-,N/A,,Haze,130,2013-10-02 11:50:00
1:30 PM,68.0,59.0,73,29.83,6.2,SE,8.1,-,N/A,,Mostly Cloudy,140,2013-10-02 12:30:00
1:50 PM,66.2,59.0,78,29.83,6.2,ESE,10.4,-,N/A,,Mostly Cloudy,120,2013-10-02 12:50:00
2:50 PM,68.0,59.0,73,29.83,6.2,ESE,9.2,-,N/A,,Mostly Cloudy,120,2013-10-02 13:50:00
3:50 PM,68,58,63,29.84,9,SSE,10.4,,,,Mostly Cloudy,160,2013-10-02 14:50:00
3:50 PM,68.0,59.0,73,29.83,6.2,SSE,10.4,-,N/A,,Mostly Cloudy,160,2013-10-02 14:50:00
4:50 PM,68.0,59.0,73,29.83,6.2,SSE,11.5,-,N/A,,Mostly Cloudy,150,2013-10-02 15:50:00
5:50 PM,66.2,57.2,73,29.86,6.2,South,8.1,-,N/A,,Mostly Cloudy,190,2013-10-02 16:50:00
6:50 PM,64,56,70,29.87,12,SSE,9.2,,,,Partly Cloudy,160,2013-10-02 17:50:00
6:50 PM,64.4,57.2,77,29.86,6.2,SSE,9.2,-,N/A,,Mostly Cloudy,160,2013-10-02 17:50:00
7:50 PM,62.6,57.2,82,29.86,-9999.0,SSE,6.9,-,N/A,,Clear,150,2013-10-02 18:50:00
8:50 PM,62.6,59.0,88,29.89,-9999.0,SE,6.9,-,N/A,,Clear,130,2013-10-02 19:50:00
9:50 PM,61,58,85,29.90,6,SSE,6.9,,,,Scattered Clouds,150,2013-10-02 20:50:00
9:50 PM,60.8,57.2,88,29.89,-9999.0,SSE,6.9,-,N/A,,Clear,150,2013-10-02 20:50:00
10:50 PM,59.0,57.2,94,29.89,5.0,ESE,3.5,-,N/A,,Haze,120,2013-10-02 21:50:00
11:50 PM,57.2,55.4,94,29.89,3.1,East,4.6,-,N/A,,Unknown,100,2013-10-02 22:50:00